Plano's Hourly Summary for Tuesday, April 18, 2017
Hour Temp
(f)
RH
(%)
Solar Rad.
(MJ/m2)
Rainfall
(in)
Wind
(mph)
4/18/2017 12:00 AM 63 90 0 0 2.08
4/18/2017 1:00 AM 63 86 0 0 1.34
4/18/2017 2:00 AM 63 86 0 0 0.11
4/18/2017 3:00 AM 63 90 0 0 0
4/18/2017 4:00 AM 63 92 0 0 0.01
4/18/2017 5:00 AM 62 92 0 0 0.15
4/18/2017 6:00 AM 62 93 0 0 0.02
4/18/2017 7:00 AM 62 94 0 0 0.13
4/18/2017 8:00 AM 62 93 0.12 0 0.02
4/18/2017 9:00 AM 65 79 0.57 0 0.98
4/18/2017 10:00 AM 69 72 1.06 0 2.3
4/18/2017 11:00 AM 72 60 2.19 0 3.44
4/18/2017 12:00 PM 74 60 2.72 0 4.87
4/18/2017 1:00 PM 77 53 3.07 0 4.14
4/18/2017 2:00 PM 79 49 2.91 0 3.97
4/18/2017 3:00 PM 78 48 2.24 0 4.16
4/18/2017 4:00 PM 80 45 2.73 0 4.3
4/18/2017 5:00 PM 80 45 2.32 0 4.04
4/18/2017 6:00 PM 80 45 1.71 0 3.85
4/18/2017 7:00 PM 80 48 0.96 0 3.54
4/18/2017 8:00 PM 75 50 0.27 0 4.41
4/18/2017 9:00 PM 71 67 0 0 2.54
4/18/2017 10:00 PM 70 68 0 0 1.99
4/18/2017 11:00 PM 69 70 0 0 1.92
Data Summary 70 69 22.87 0.00 2.26